createdAt,value
2022-10-07T00:02:08.071Z,7.60
2022-10-07T00:04:39.388Z,7.70
2022-10-07T00:07:07.891Z,7.50
2022-10-07T00:09:36.384Z,7.40
2022-10-07T00:12:06.896Z,7.50
2022-10-07T00:14:35.992Z,7.50
2022-10-07T00:17:04.674Z,7.40
2022-10-07T00:19:33.606Z,7.20
2022-10-07T00:22:03.655Z,7.10
2022-10-07T00:24:32.344Z,7.10
2022-10-07T00:27:01.411Z,7.10
2022-10-07T00:29:29.876Z,7.50
2022-10-07T00:31:58.471Z,7.60
2022-10-07T00:34:27.457Z,7.60
2022-10-07T00:36:56.221Z,7.40
2022-10-07T00:39:26.471Z,7.20
2022-10-07T00:41:55.798Z,7.50
2022-10-07T00:44:41.744Z,7.40
2022-10-07T00:47:20.511Z,7.30
2022-10-07T00:49:54.952Z,7.20
2022-10-07T00:52:27.842Z,7.00
2022-10-07T00:55:01.680Z,7.00
2022-10-07T00:57:33.013Z,6.70
2022-10-07T01:00:02.756Z,6.70
2022-10-07T01:02:31.863Z,7.00
2022-10-07T01:05:02.951Z,6.90
2022-10-07T01:07:31.652Z,7.20
2022-10-07T01:10:02.929Z,7.30
2022-10-07T01:12:49.638Z,7.10
2022-10-07T01:15:28.559Z,6.80
2022-10-07T01:18:12.922Z,6.90
2022-10-07T01:20:47.941Z,7.00
2022-10-07T01:24:03.057Z,7.00
2022-10-07T01:26:49.956Z,6.90
2022-10-07T01:29:25.235Z,7.20
2022-10-07T01:32:05.393Z,6.80
2022-10-07T01:34:37.456Z,6.60
2022-10-07T01:37:13.330Z,6.70
2022-10-07T01:39:48.656Z,6.70
2022-10-07T01:42:20.648Z,6.70
2022-10-07T01:44:54.626Z,6.80
2022-10-07T01:47:23.763Z,6.60
2022-10-07T01:49:52.554Z,6.70
2022-10-07T01:52:52.937Z,6.60
2022-10-07T01:55:44.439Z,6.70
2022-10-07T01:58:33.741Z,6.60
2022-10-07T02:01:16.751Z,6.80
2022-10-07T02:04:13.865Z,6.80
2022-10-07T02:06:53.646Z,6.70
2022-10-07T02:09:32.054Z,6.60
2022-10-07T02:12:13.231Z,6.70
2022-10-07T02:14:53.166Z,6.40
2022-10-07T02:17:26.692Z,6.30
2022-10-07T02:19:57.534Z,6.40
2022-10-07T02:22:30.243Z,6.30
2022-10-07T02:25:00.737Z,6.40
2022-10-07T02:27:34.982Z,6.40
2022-10-07T02:30:11.933Z,6.30
2022-10-07T02:32:46.644Z,6.30
2022-10-07T02:35:23.360Z,6.10
2022-10-07T02:37:55.856Z,6.60
2022-10-07T02:40:32.401Z,6.50
2022-10-07T02:43:05.731Z,6.30
2022-10-07T02:45:46.443Z,6.50
2022-10-07T02:48:23.595Z,6.70
2022-10-07T02:50:58.562Z,6.60
2022-10-07T02:53:32.424Z,6.70
2022-10-07T02:56:03.647Z,6.40
2022-10-07T02:58:32.249Z,6.40
2022-10-07T03:01:04.194Z,6.50
2022-10-07T03:03:33.434Z,6.60
2022-10-07T03:06:02.304Z,7.00
2022-10-07T03:08:31.198Z,7.00
2022-10-07T03:11:00.048Z,6.70
2022-10-07T03:13:29.158Z,6.70
2022-10-07T03:15:58.383Z,6.40
2022-10-07T03:18:29.304Z,6.60
2022-10-07T03:21:00.500Z,6.60
2022-10-07T03:23:30.506Z,6.40
2022-10-07T03:26:01.320Z,6.20
2022-10-07T03:28:37.793Z,5.90
2022-10-07T03:31:08.568Z,5.90
2022-10-07T03:33:38.881Z,6.40
2022-10-07T03:36:09.684Z,6.30
2022-10-07T03:38:39.045Z,6.70
2022-10-07T03:41:07.784Z,6.50
2022-10-07T03:43:37.345Z,6.50
2022-10-07T03:46:07.163Z,6.30
2022-10-07T03:48:37.783Z,6.20
2022-10-07T03:51:07.638Z,6.30
2022-10-07T03:53:40.783Z,6.30
2022-10-07T03:56:09.940Z,6.30
2022-10-07T03:58:39.607Z,6.30
2022-10-07T04:01:10.050Z,6.20
2022-10-07T04:03:39.924Z,6.30
2022-10-07T04:06:08.890Z,6.30
2022-10-07T04:08:37.989Z,6.20
2022-10-07T04:11:06.793Z,6.10
2022-10-07T04:13:35.963Z,5.90
2022-10-07T04:16:09.360Z,5.80
2022-10-07T04:18:42.123Z,5.90
2022-10-07T04:21:12.415Z,6.10
2022-10-07T04:23:42.894Z,6.00
2022-10-07T04:26:13.337Z,6.00
2022-10-07T04:28:42.671Z,5.80
2022-10-07T04:31:12.647Z,5.80
2022-10-07T04:33:44.755Z,6.10
2022-10-07T04:36:14.105Z,6.10
2022-10-07T04:38:44.529Z,6.70
2022-10-07T04:41:13.281Z,6.90
2022-10-07T04:43:42.268Z,7.10
2022-10-07T04:46:14.426Z,6.60
2022-10-07T04:48:47.353Z,6.70
2022-10-07T04:51:16.449Z,6.80
2022-10-07T04:53:45.113Z,7.10
2022-10-07T04:56:13.791Z,7.20
2022-10-07T04:58:42.472Z,6.90
2022-10-07T05:01:12.032Z,6.50
2022-10-07T05:03:42.057Z,6.20
2022-10-07T05:06:12.278Z,6.10
2022-10-07T05:08:43.620Z,6.00
2022-10-07T05:11:12.597Z,6.20
2022-10-07T05:13:41.199Z,6.20
2022-10-07T05:16:12.024Z,6.10
2022-10-07T05:18:41.134Z,6.10
2022-10-07T05:21:11.660Z,6.00
2022-10-07T05:23:40.248Z,6.00
2022-10-07T05:26:09.285Z,5.90
2022-10-07T05:28:39.389Z,6.00
2022-10-07T05:31:11.156Z,6.10
2022-10-07T05:33:40.902Z,5.70
2022-10-07T05:36:12.853Z,6.30
2022-10-07T05:38:41.789Z,6.10
2022-10-07T05:41:13.629Z,5.90
2022-10-07T05:43:43.683Z,6.00
2022-10-07T05:46:15.319Z,6.10
2022-10-07T05:48:49.031Z,6.10
2022-10-07T05:51:20.407Z,6.10
2022-10-07T05:53:49.842Z,6.30
2022-10-07T05:56:21.640Z,6.00
2022-10-07T05:58:50.919Z,6.20
2022-10-07T06:01:21.940Z,6.20
2022-10-07T06:03:52.937Z,6.30
2022-10-07T06:06:23.977Z,6.30
2022-10-07T06:08:54.361Z,6.10
2022-10-07T06:11:40.144Z,6.00
2022-10-07T06:14:08.749Z,6.20
2022-10-07T06:16:37.544Z,6.40
2022-10-07T06:19:22.695Z,6.30
2022-10-07T06:21:53.848Z,6.40
2022-10-07T06:24:22.613Z,6.50
2022-10-07T06:26:51.340Z,6.50
2022-10-07T06:29:20.096Z,6.60
2022-10-07T06:31:48.862Z,6.90
2022-10-07T06:34:19.312Z,6.90
2022-10-07T06:36:47.969Z,7.10
2022-10-07T06:39:18.778Z,7.10
2022-10-07T06:41:47.478Z,7.30
2022-10-07T06:44:16.191Z,7.00
2022-10-07T06:46:44.997Z,7.00
2022-10-07T06:49:14.148Z,7.10
2022-10-07T06:51:42.897Z,7.40
2022-10-07T06:54:11.793Z,7.20
2022-10-07T06:56:41.728Z,7.30
2022-10-07T06:59:10.526Z,7.60
2022-10-07T07:01:39.114Z,7.60
2022-10-07T07:04:08.214Z,7.50
2022-10-07T07:06:38.268Z,7.60
2022-10-07T07:09:07.154Z,7.70
2022-10-07T07:11:41.160Z,7.90
2022-10-07T07:14:12.645Z,7.90
2022-10-07T07:16:42.453Z,7.90
2022-10-07T07:19:14.792Z,7.90
2022-10-07T07:21:46.577Z,8.10
2022-10-07T07:24:17.753Z,8.20
2022-10-07T07:26:46.792Z,8.20
2022-10-07T07:29:17.677Z,8.40
2022-10-07T07:31:46.624Z,8.60
2022-10-07T07:34:15.692Z,8.60
2022-10-07T07:36:48.605Z,8.70
2022-10-07T07:39:19.223Z,9.00
2022-10-07T07:41:48.176Z,9.30
2022-10-07T07:44:19.989Z,9.50
2022-10-07T07:46:52.308Z,9.50
2022-10-07T07:49:22.605Z,9.50
2022-10-07T07:51:51.932Z,9.90
2022-10-07T07:54:20.884Z,10.10
2022-10-07T07:56:49.473Z,10.30
2022-10-07T07:59:19.357Z,10.40
2022-10-07T08:01:48.112Z,10.40
2022-10-07T08:04:17.490Z,10.30
2022-10-07T08:06:46.262Z,10.50
2022-10-07T08:09:14.850Z,10.50
2022-10-07T08:11:45.494Z,10.90
2022-10-07T08:14:14.446Z,11.10
2022-10-07T08:16:45.175Z,11.20
2022-10-07T08:19:13.830Z,11.20
2022-10-07T08:21:43.173Z,11.30
2022-10-07T08:24:14.716Z,11.60
2022-10-07T08:26:43.366Z,11.60
2022-10-07T08:29:13.726Z,11.70
2022-10-07T08:31:44.345Z,11.80
2022-10-07T08:34:13.978Z,11.90
2022-10-07T08:36:47.443Z,12.00
2022-10-07T08:39:17.185Z,12.10
2022-10-07T08:42:02.919Z,12.30
2022-10-07T08:44:36.270Z,12.40
2022-10-07T08:47:18.022Z,12.50
2022-10-07T08:50:00.793Z,12.80
2022-10-07T08:52:45.173Z,13.00
2022-10-07T08:55:24.632Z,13.00
2022-10-07T08:58:33.834Z,13.10
2022-10-07T09:01:15.659Z,13.20
2022-10-07T09:03:54.991Z,13.40
2022-10-07T09:06:33.427Z,13.50
2022-10-07T09:09:08.094Z,13.50
2022-10-07T09:11:36.930Z,13.70
2022-10-07T09:14:23.234Z,13.80
2022-10-07T09:16:54.072Z,14.10
2022-10-07T09:19:33.439Z,14.30
2022-10-07T09:22:08.484Z,14.30
2022-10-07T09:24:37.805Z,14.50
2022-10-07T09:27:16.112Z,14.70
2022-10-07T09:29:45.348Z,14.80
2022-10-07T09:32:17.625Z,14.90
2022-10-07T09:34:48.464Z,14.90
2022-10-07T09:37:22.055Z,15.10
2022-10-07T09:39:53.319Z,15.00
2022-10-07T09:42:31.923Z,15.20
2022-10-07T09:45:04.018Z,15.10
2022-10-07T09:47:40.730Z,15.30
2022-10-07T09:50:36.585Z,15.40
2022-10-07T09:53:17.737Z,15.60
2022-10-07T09:55:50.025Z,15.70
2022-10-07T09:58:22.838Z,16.00
2022-10-07T10:00:53.958Z,15.90
2022-10-07T10:03:29.847Z,15.80
2022-10-07T10:06:01.806Z,16.20
2022-10-07T10:08:34.083Z,16.20
2022-10-07T10:11:05.222Z,16.20
2022-10-07T10:13:37.347Z,16.20
2022-10-07T10:16:28.816Z,16.30
2022-10-07T10:19:02.539Z,16.50
2022-10-07T10:21:36.758Z,16.70
2022-10-07T10:24:08.102Z,16.90
2022-10-07T10:27:01.665Z,16.90
2022-10-07T10:29:50.836Z,17.10
2022-10-07T10:32:50.661Z,17.20
2022-10-07T10:35:27.110Z,17.20
2022-10-07T10:38:15.401Z,17.00
2022-10-07T10:40:55.285Z,17.20
2022-10-07T10:43:32.485Z,17.20
2022-10-07T10:46:19.450Z,17.30
2022-10-07T10:48:55.608Z,17.40
2022-10-07T10:51:46.968Z,17.30
2022-10-07T10:54:25.001Z,17.20
2022-10-07T10:56:59.545Z,17.30
2022-10-07T10:59:59.151Z,17.50
2022-10-07T11:03:06.411Z,17.80
2022-10-07T11:05:38.870Z,17.70
2022-10-07T11:08:17.705Z,17.80
2022-10-07T11:10:53.404Z,17.80
2022-10-07T11:13:32.640Z,18.00
2022-10-07T11:16:08.523Z,18.40
2022-10-07T11:18:46.032Z,18.30
2022-10-07T11:21:22.132Z,18.10
2022-10-07T11:24:02.871Z,18.30
2022-10-07T11:26:39.287Z,18.30
2022-10-07T11:29:20.714Z,18.30
2022-10-07T11:31:56.952Z,18.40
2022-10-07T11:34:38.603Z,18.60
2022-10-07T11:37:17.113Z,18.50
2022-10-07T11:39:46.106Z,18.70
2022-10-07T11:42:22.670Z,18.40
2022-10-07T11:45:01.992Z,18.50
2022-10-07T11:47:37.994Z,18.80
2022-10-07T11:50:15.414Z,18.80
2022-10-07T11:52:49.068Z,18.80
2022-10-07T11:55:24.795Z,19.00
2022-10-07T11:57:59.191Z,19.00
2022-10-07T12:00:30.844Z,19.10
2022-10-07T12:03:12.036Z,19.10
2022-10-07T12:06:11.654Z,19.00
2022-10-07T12:08:42.201Z,19.00
2022-10-07T12:11:47.352Z,18.90
2022-10-07T12:14:43.272Z,19.00
2022-10-07T12:17:27.409Z,19.00
2022-10-07T12:20:45.497Z,19.00
2022-10-07T12:23:50.021Z,19.20
2022-10-07T12:26:52.824Z,19.50
2022-10-07T12:29:32.729Z,19.60
2022-10-07T12:32:02.329Z,19.70
2022-10-07T12:34:41.330Z,19.70
2022-10-07T12:37:46.886Z,19.60
2022-10-07T12:40:28.650Z,19.60
2022-10-07T12:43:11.538Z,19.60
2022-10-07T12:45:44.465Z,19.50
2022-10-07T12:48:20.795Z,19.70
2022-10-07T12:50:53.087Z,19.70
2022-10-07T12:53:27.817Z,19.60
2022-10-07T12:55:58.401Z,19.60
2022-10-07T12:59:21.723Z,19.80
2022-10-07T13:02:43.332Z,19.90
2022-10-07T13:06:18.108Z,19.80
2022-10-07T13:09:23.847Z,19.80
2022-10-07T13:12:34.716Z,19.80
2022-10-07T13:15:18.298Z,19.60
2022-10-07T13:17:56.382Z,19.90
2022-10-07T13:20:54.768Z,19.70
2022-10-07T13:23:32.575Z,19.90
2022-10-07T13:26:03.053Z,19.90
2022-10-07T13:28:50.966Z,19.90
2022-10-07T13:31:23.295Z,19.90
2022-10-07T13:33:55.303Z,19.90
2022-10-07T13:36:26.568Z,20.10
2022-10-07T13:39:13.829Z,20.30
2022-10-07T13:41:47.492Z,20.20
2022-10-07T13:44:19.298Z,20.10
2022-10-07T13:46:58.822Z,20.20
2022-10-07T13:49:32.037Z,20.30
2022-10-07T13:52:04.195Z,20.20
2022-10-07T13:54:35.513Z,20.40
2022-10-07T13:57:07.776Z,20.50
2022-10-07T13:59:39.051Z,20.50
2022-10-07T14:02:15.546Z,20.40
2022-10-07T14:05:00.107Z,19.90
2022-10-07T14:07:30.392Z,20.20
2022-10-07T14:10:10.155Z,20.30
2022-10-07T14:12:42.598Z,20.10
2022-10-07T14:15:19.901Z,20.20
2022-10-07T14:17:51.079Z,20.40
2022-10-07T14:20:29.462Z,20.60
2022-10-07T14:23:00.452Z,20.40
2022-10-07T14:25:31.600Z,20.30
2022-10-07T14:28:17.916Z,20.60
2022-10-07T14:31:05.913Z,20.80
2022-10-07T14:34:03.752Z,20.60
2022-10-07T14:36:34.889Z,20.50
2022-10-07T14:39:23.555Z,20.40
2022-10-07T14:41:52.418Z,20.40
2022-10-07T14:44:21.813Z,20.40
2022-10-07T14:46:50.949Z,20.50
2022-10-07T14:49:19.730Z,20.30
2022-10-07T14:51:50.431Z,20.50
2022-10-07T14:54:19.047Z,20.50
2022-10-07T14:56:47.606Z,20.30
2022-10-07T14:59:16.483Z,20.30
2022-10-07T15:01:45.414Z,20.40
2022-10-07T15:04:14.088Z,20.40
2022-10-07T15:06:47.449Z,20.30
2022-10-07T15:09:20.305Z,20.20
2022-10-07T15:11:51.139Z,20.20
2022-10-07T15:14:19.746Z,20.10
2022-10-07T15:16:48.724Z,20.20
2022-10-07T15:19:18.072Z,20.20
2022-10-07T15:21:46.804Z,20.10
2022-10-07T15:24:16.453Z,20.10
2022-10-07T15:26:47.298Z,19.80
2022-10-07T15:29:16.732Z,19.80
2022-10-07T15:31:45.606Z,19.70
2022-10-07T15:34:14.404Z,19.60
2022-10-07T15:36:43.500Z,19.80
2022-10-07T15:39:12.686Z,19.60
2022-10-07T15:41:44.336Z,19.70
2022-10-07T15:44:18.387Z,19.60
2022-10-07T15:46:48.202Z,19.50
2022-10-07T15:49:17.544Z,19.50
2022-10-07T15:51:47.734Z,19.40
2022-10-07T15:54:16.960Z,19.40
2022-10-07T15:56:45.825Z,19.20
2022-10-07T15:59:16.443Z,19.10
2022-10-07T16:01:45.571Z,19.00
2022-10-07T16:04:15.758Z,18.80
2022-10-07T16:06:51.322Z,18.80
2022-10-07T16:09:20.557Z,18.60
2022-10-07T16:11:50.617Z,18.60
2022-10-07T16:14:21.010Z,18.40
2022-10-07T16:16:50.855Z,18.50
2022-10-07T16:19:20.009Z,18.50
2022-10-07T16:21:48.746Z,18.40
2022-10-07T16:24:20.990Z,18.20
2022-10-07T16:26:51.638Z,18.00
2022-10-07T16:29:41.433Z,18.00
2022-10-07T16:32:11.865Z,17.70
2022-10-07T16:34:43.747Z,17.60
2022-10-07T16:37:13.247Z,17.40
2022-10-07T16:39:42.287Z,17.60
2022-10-07T16:42:11.581Z,17.60
2022-10-07T16:44:43.811Z,17.60
2022-10-07T16:47:14.389Z,17.50
2022-10-07T16:49:44.038Z,17.30
2022-10-07T16:52:14.257Z,17.00
2022-10-07T16:54:43.326Z,16.80
2022-10-07T16:57:11.866Z,16.90
2022-10-07T16:59:42.090Z,16.80
2022-10-07T17:02:11.201Z,16.10
2022-10-07T17:04:40.096Z,16.00
2022-10-07T17:07:09.236Z,15.50
2022-10-07T17:09:38.112Z,15.20
2022-10-07T17:12:07.727Z,15.20
2022-10-07T17:14:39.244Z,15.30
2022-10-07T17:17:09.828Z,15.60
2022-10-07T17:19:39.000Z,15.70
2022-10-07T17:22:07.842Z,15.80
2022-10-07T17:24:36.664Z,15.70
2022-10-07T17:27:07.046Z,15.80
2022-10-07T17:29:38.399Z,15.70
2022-10-07T17:32:10.288Z,14.90
2022-10-07T17:34:44.529Z,15.10
2022-10-07T17:37:14.786Z,14.90
2022-10-07T17:39:43.812Z,14.50
2022-10-07T17:42:12.468Z,14.60
2022-10-07T17:44:41.296Z,15.00
2022-10-07T17:47:11.629Z,15.10
2022-10-07T17:49:40.190Z,14.90
2022-10-07T17:52:11.275Z,14.60
2022-10-07T17:54:40.406Z,14.80
2022-10-07T17:57:09.217Z,14.40
2022-10-07T17:59:38.779Z,14.30
2022-10-07T18:02:07.536Z,14.40
2022-10-07T18:04:38.017Z,13.90
2022-10-07T18:07:07.225Z,13.80
2022-10-07T18:09:36.235Z,14.10
2022-10-07T18:12:22.480Z,14.20
2022-10-07T18:15:09.609Z,14.30
2022-10-07T18:17:38.619Z,13.70
2022-10-07T18:20:14.991Z,13.40
2022-10-07T18:22:45.373Z,13.40
2022-10-07T18:25:14.143Z,13.40
2022-10-07T18:27:43.804Z,13.90
2022-10-07T18:30:13.988Z,14.00
2022-10-07T18:32:42.798Z,14.00
2022-10-07T18:35:13.970Z,13.70
2022-10-07T18:37:43.186Z,13.50
2022-10-07T18:40:12.792Z,13.20
2022-10-07T18:42:42.067Z,12.60
2022-10-07T18:45:11.723Z,12.40
2022-10-07T18:47:40.256Z,12.50
2022-10-07T18:50:10.082Z,12.70
2022-10-07T18:52:40.243Z,12.50
2022-10-07T18:55:10.351Z,12.00
2022-10-07T18:57:39.019Z,12.30
2022-10-07T19:00:11.696Z,12.50
2022-10-07T19:02:43.107Z,12.70
2022-10-07T19:05:11.897Z,12.80
2022-10-07T19:07:42.081Z,12.40
2022-10-07T19:10:11.341Z,12.30
2022-10-07T19:12:57.100Z,12.20
2022-10-07T19:15:26.031Z,12.50
2022-10-07T19:17:54.711Z,12.00
2022-10-07T19:20:24.282Z,12.10
2022-10-07T19:22:55.101Z,12.20
2022-10-07T19:25:52.626Z,12.30
2022-10-07T19:28:22.403Z,12.30
2022-10-07T19:30:51.307Z,11.80
2022-10-07T19:33:20.609Z,12.00
2022-10-07T19:35:56.204Z,12.20
2022-10-07T19:38:27.601Z,11.70
2022-10-07T19:40:57.523Z,11.60
2022-10-07T19:43:26.122Z,11.90
2022-10-07T19:45:54.979Z,12.10
2022-10-07T19:48:23.579Z,12.30
2022-10-07T19:51:01.044Z,11.90
2022-10-07T19:53:35.199Z,11.80
2022-10-07T19:56:06.110Z,11.50
2022-10-07T19:58:36.056Z,11.20
2022-10-07T20:01:07.567Z,11.20
2022-10-07T20:03:36.851Z,11.00
2022-10-07T20:06:08.134Z,10.90
2022-10-07T20:08:41.318Z,10.90
2022-10-07T20:11:11.820Z,11.10
2022-10-07T20:13:42.846Z,11.50
2022-10-07T20:16:16.742Z,11.60
2022-10-07T20:18:46.645Z,11.60
2022-10-07T20:21:24.129Z,11.50
2022-10-07T20:23:56.088Z,10.80
2022-10-07T20:26:28.138Z,10.70
2022-10-07T20:28:59.704Z,10.60
2022-10-07T20:31:32.082Z,11.00
2022-10-07T20:34:03.017Z,11.20
2022-10-07T20:36:34.414Z,10.90
2022-10-07T20:39:25.536Z,10.90
2022-10-07T20:42:13.155Z,11.10
2022-10-07T20:44:42.486Z,10.50
2022-10-07T20:47:12.780Z,10.20
2022-10-07T20:49:42.710Z,10.20
2022-10-07T20:52:17.143Z,10.20
2022-10-07T20:54:49.078Z,10.40
2022-10-07T20:57:21.201Z,10.60
2022-10-07T20:59:50.636Z,10.90
2022-10-07T21:02:22.765Z,10.80
2022-10-07T21:04:51.723Z,10.40
2022-10-07T21:07:21.318Z,10.50
2022-10-07T21:09:51.460Z,10.50
2022-10-07T21:12:21.178Z,10.40
2022-10-07T21:14:49.850Z,10.40
2022-10-07T21:17:19.126Z,10.50
2022-10-07T21:19:47.910Z,10.20
2022-10-07T21:22:16.728Z,10.20
2022-10-07T21:24:45.654Z,10.40
2022-10-07T21:27:16.165Z,10.30
2022-10-07T21:29:48.623Z,10.20
2022-10-07T21:32:18.565Z,9.90
2022-10-07T21:34:47.549Z,9.80
2022-10-07T21:37:16.403Z,10.10
2022-10-07T21:39:45.545Z,9.80
2022-10-07T21:42:16.603Z,9.70
2022-10-07T21:44:47.360Z,9.50
2022-10-07T21:47:16.045Z,9.40
2022-10-07T21:49:45.319Z,9.50
2022-10-07T21:52:14.278Z,9.30
2022-10-07T21:54:43.453Z,9.40
2022-10-07T21:57:12.599Z,9.20
2022-10-07T21:59:43.250Z,9.00
2022-10-07T22:02:11.934Z,9.00
2022-10-07T22:04:42.493Z,9.20
2022-10-07T22:07:30.312Z,9.10
2022-10-07T22:09:59.710Z,9.10
2022-10-07T22:12:28.798Z,9.00
2022-10-07T22:14:58.782Z,9.00
2022-10-07T22:17:27.626Z,8.90
2022-10-07T22:19:56.326Z,9.10
2022-10-07T22:22:25.604Z,9.10
2022-10-07T22:24:54.446Z,9.00
2022-10-07T22:27:24.980Z,8.90
2022-10-07T22:29:54.422Z,8.90
2022-10-07T22:32:24.525Z,8.90
2022-10-07T22:35:10.777Z,9.10
2022-10-07T22:37:41.182Z,9.00
2022-10-07T22:40:11.509Z,9.40
2022-10-07T22:42:40.190Z,9.40
2022-10-07T22:45:10.175Z,9.30
2022-10-07T22:47:40.492Z,9.50
2022-10-07T22:50:10.364Z,9.90
2022-10-07T22:52:39.859Z,9.50
2022-10-07T22:55:10.290Z,9.50
2022-10-07T22:57:39.129Z,9.20
2022-10-07T23:00:10.205Z,9.00
2022-10-07T23:02:40.622Z,9.20
2022-10-07T23:05:11.201Z,9.40
2022-10-07T23:07:40.144Z,9.50
2022-10-07T23:10:10.787Z,9.80
2022-10-07T23:12:39.420Z,9.80
2022-10-07T23:15:09.908Z,9.50
2022-10-07T23:17:40.444Z,9.40
2022-10-07T23:20:10.389Z,9.60
2022-10-07T23:22:41.793Z,9.30
2022-10-07T23:25:11.161Z,9.60
2022-10-07T23:27:41.418Z,9.50
2022-10-07T23:30:12.262Z,9.00
2022-10-07T23:32:45.812Z,8.80
2022-10-07T23:35:15.178Z,8.80
2022-10-07T23:37:45.481Z,8.70
2022-10-07T23:40:14.373Z,9.00
2022-10-07T23:42:42.968Z,8.90
2022-10-07T23:45:13.403Z,9.20
2022-10-07T23:47:43.663Z,9.30
2022-10-07T23:50:13.658Z,9.40
2022-10-07T23:52:42.191Z,9.40
2022-10-07T23:55:12.534Z,9.30
2022-10-07T23:57:41.357Z,9.50
